TimeWEST,TemperatureF,Dew PointF,Humidity,Sea Level PressureIn,VisibilityMPH,Wind Direction,Wind SpeedMPH,Gust SpeedMPH,PrecipitationIn,Events,Conditions,WindDirDegrees,DateUTC
7:00 AM,59,31,22,,12,Calm,Calm,,,,,,2013-10-25 06:00:00
7:00 AM,59.0,30.2,34,30.09,-9999.0,Calm,Calm,-,N/A,,Clear,0,2013-10-25 06:00:00
8:00 AM,59.0,32.0,36,30.12,-9999.0,NW,6.9,-,N/A,,Clear,320,2013-10-25 07:00:00
9:00 AM,60.8,33.8,36,30.12,-9999.0,WNW,4.6,-,N/A,,Clear,300,2013-10-25 08:00:00
10:00 AM,67,27,12,,12,ESE,2.3,,,,Clear,120,2013-10-25 09:00:00
10:00 AM,68.0,26.6,21,30.15,-9999.0,ESE,2.3,-,N/A,,Clear,120,2013-10-25 09:00:00
11:00 AM,75.2,23.0,14,30.15,-9999.0,ESE,2.3,-,N/A,,Clear,120,2013-10-25 10:00:00
12:00 PM,80.6,23.0,12,30.15,-9999.0,WSW,2.3,-,N/A,,Clear,240,2013-10-25 11:00:00
1:00 PM,82,22,5,,9,SSW,4.6,,,,Scattered Clouds,200,2013-10-25 12:00:00
1:00 PM,82.4,23.0,11,30.09,-9999.0,SSW,3.5,-,N/A,,Clear,200,2013-10-25 12:00:00
2:00 PM,84.2,19.4,9,30.06,-9999.0,SW,13.8,-,N/A,,Clear,220,2013-10-25 13:00:00
2:50 PM,87.8,19.4,8,30.04,2.5,SSW,24.2,-,N/A,,Sand,200,2013-10-25 13:50:00
3:00 PM,87.8,19.4,8,30.04,2.5,SSW,24.2,-,N/A,,Sand,200,2013-10-25 14:00:00
3:01 PM,87.8,19.4,8,30.01,3.7,SSW,27.6,40.3,N/A,,Sand,200,2013-10-25 14:01:00
4:00 PM,87,21,4,,2,SSW,20.7,,,,Blowing Sand,200,2013-10-25 15:00:00
4:00 PM,86.0,21.2,9,30.04,2.5,SSW,20.7,-,N/A,,Sand,200,2013-10-25 15:00:00
5:00 PM,86.0,17.6,8,30.01,2.5,SSW,20.7,-,N/A,,Sand,200,2013-10-25 16:00:00
6:00 PM,86.0,21.2,9,30.01,2.5,SSW,19.6,-,N/A,,Sand,200,2013-10-25 17:00:00
7:00 PM,83,18,4,,2,SSW,18.4,,,,Blowing Sand,200,2013-10-25 18:00:00
7:00 PM,82.4,17.6,9,30.04,2.5,SSW,18.4,-,N/A,,Sand,200,2013-10-25 18:00:00
10:00 PM,76,22,6,,6,SSW,6.9,,,,Partly Cloudy,200,2013-10-25 21:00:00
10:00 PM,77.0,21.2,12,30.04,6.2,SSW,6.9,-,N/A,,Scattered Clouds,200,2013-10-25 21:00:00